sensor_id;sensor_type;location;lat;lon;timestamp;pressure;altitude;pressure_sealevel;temperature;humidity
27840;BME280;15207;42.182;24.308;2023-06-22T00:01:52;99443.28;;;20.47;95.24
27840;BME280;15207;42.182;24.308;2023-06-22T00:04:18;99444.66;;;20.43;95.26
27840;BME280;15207;42.182;24.308;2023-06-22T00:06:44;99448.03;;;20.45;97.03
27840;BME280;15207;42.182;24.308;2023-06-22T00:09:09;99447.13;;;20.53;96.48
27840;BME280;15207;42.182;24.308;2023-06-22T00:11:36;99449.03;;;20.52;96.84
27840;BME280;15207;42.182;24.308;2023-06-22T00:14:03;99458.88;;;20.53;96.36
27840;BME280;15207;42.182;24.308;2023-06-22T00:16:29;99454.38;;;20.60;96.31
27840;BME280;15207;42.182;24.308;2023-06-22T00:18:55;99461.13;;;20.65;95.64
27840;BME280;15207;42.182;24.308;2023-06-22T00:21:20;99460.66;;;20.61;94.99
27840;BME280;15207;42.182;24.308;2023-06-22T00:23:46;99462.03;;;20.42;94.66
27840;BME280;15207;42.182;24.308;2023-06-22T00:26:13;99478.69;;;20.39;95.12
27840;BME280;15207;42.182;24.308;2023-06-22T00:28:39;99475.63;;;20.18;97.46
27840;BME280;15207;42.182;24.308;2023-06-22T00:31:04;99474.97;;;20.08;98.69
27840;BME280;15207;42.182;24.308;2023-06-22T00:33:30;99485.97;;;20.15;98.63
27840;BME280;15207;42.182;24.308;2023-06-22T00:35:57;99482.44;;;20.14;98.22
27840;BME280;15207;42.182;24.308;2023-06-22T00:38:22;99481.41;;;20.15;98.46
27840;BME280;15207;42.182;24.308;2023-06-22T00:40:48;99486.72;;;20.08;99.14
27840;BME280;15207;42.182;24.308;2023-06-22T00:43:14;99481.88;;;19.87;99.53
27840;BME280;15207;42.182;24.308;2023-06-22T00:45:39;99475.53;;;19.95;99.28
27840;BME280;15207;42.182;24.308;2023-06-22T00:48:06;99479.09;;;19.95;99.32
27840;BME280;15207;42.182;24.308;2023-06-22T00:50:33;99470.97;;;19.95;99.26
27840;BME280;15207;42.182;24.308;2023-06-22T00:53:05;99476.38;;;19.95;98.07
27840;BME280;15207;42.182;24.308;2023-06-22T00:55:35;99478.53;;;19.77;99.07
27840;BME280;15207;42.182;24.308;2023-06-22T00:58:06;99476.50;;;19.79;98.87
27840;BME280;15207;42.182;24.308;2023-06-22T01:00:36;99471.53;;;19.82;97.77
27840;BME280;15207;42.182;24.308;2023-06-22T01:03:02;99474.75;;;19.86;97.61
27840;BME280;15207;42.182;24.308;2023-06-22T01:05:29;99478.63;;;19.92;96.85
27840;BME280;15207;42.182;24.308;2023-06-22T01:10:48;99483.47;;;19.73;97.12
27840;BME280;15207;42.182;24.308;2023-06-22T01:16:30;99474.66;;;19.71;96.72
27840;BME280;15207;42.182;24.308;2023-06-22T01:19:05;99477.81;;;19.51;97.10
27840;BME280;15207;42.182;24.308;2023-06-22T01:21:33;99468.78;;;19.11;100.00
27840;BME280;15207;42.182;24.308;2023-06-22T01:26:35;99470.28;;;19.05;100.00
27840;BME280;15207;42.182;24.308;2023-06-22T01:29:04;99475.72;;;19.13;100.00
27840;BME280;15207;42.182;24.308;2023-06-22T01:31:31;99474.31;;;19.26;100.00
27840;BME280;15207;42.182;24.308;2023-06-22T01:34:03;99471.91;;;19.31;100.00
27840;BME280;15207;42.182;24.308;2023-06-22T01:36:31;99475.97;;;19.43;100.00
27840;BME280;15207;42.182;24.308;2023-06-22T01:38:57;99479.00;;;19.49;100.00
27840;BME280;15207;42.182;24.308;2023-06-22T01:41:28;99478.78;;;19.50;99.45
27840;BME280;15207;42.182;24.308;2023-06-22T01:43:56;99473.19;;;19.60;98.88
27840;BME280;15207;42.182;24.308;2023-06-22T01:46:23;99471.81;;;19.64;97.55
27840;BME280;15207;42.182;24.308;2023-06-22T01:48:49;99464.88;;;19.53;97.84
27840;BME280;15207;42.182;24.308;2023-06-22T01:51:16;99474.41;;;19.49;96.79
27840;BME280;15207;42.182;24.308;2023-06-22T01:53:42;99473.06;;;19.45;97.80
27840;BME280;15207;42.182;24.308;2023-06-22T01:56:07;99481.56;;;19.42;97.92
27840;BME280;15207;42.182;24.308;2023-06-22T01:58:33;99483.47;;;19.33;98.71
27840;BME280;15207;42.182;24.308;2023-06-22T02:01:07;99477.50;;;19.38;98.71
27840;BME280;15207;42.182;24.308;2023-06-22T02:03:38;99476.47;;;19.39;98.68
27840;BME280;15207;42.182;24.308;2023-06-22T02:06:35;99477.16;;;19.41;98.11
27840;BME280;15207;42.182;24.308;2023-06-22T02:09:08;99476.63;;;19.37;98.06
27840;BME280;15207;42.182;24.308;2023-06-22T02:11:34;99472.84;;;19.07;98.81
27840;BME280;15207;42.182;24.308;2023-06-22T02:14:02;99471.47;;;18.94;99.54
27840;BME280;15207;42.182;24.308;2023-06-22T02:16:28;99476.22;;;19.00;100.00
27840;BME280;15207;42.182;24.308;2023-06-22T02:18:55;99475.53;;;18.98;100.00
27840;BME280;15207;42.182;24.308;2023-06-22T02:21:27;99491.31;;;18.95;98.79
27840;BME280;15207;42.182;24.308;2023-06-22T02:23:52;99484.84;;;18.87;98.47
27840;BME280;15207;42.182;24.308;2023-06-22T02:26:18;99490.47;;;18.86;99.30
27840;BME280;15207;42.182;24.308;2023-06-22T02:28:44;99492.00;;;18.88;99.49
27840;BME280;15207;42.182;24.308;2023-06-22T02:31:12;99491.84;;;18.82;99.64
27840;BME280;15207;42.182;24.308;2023-06-22T02:33:40;99494.53;;;18.73;99.39
27840;BME280;15207;42.182;24.308;2023-06-22T02:36:09;99496.91;;;18.60;97.92
27840;BME280;15207;42.182;24.308;2023-06-22T02:38:43;99506.41;;;18.47;97.72
27840;BME280;15207;42.182;24.308;2023-06-22T02:41:16;99499.47;;;18.53;99.15
27840;BME280;15207;42.182;24.308;2023-06-22T02:43:45;99504.53;;;18.56;99.93
27840;BME280;15207;42.182;24.308;2023-06-22T02:46:12;99507.75;;;18.35;99.62
27840;BME280;15207;42.182;24.308;2023-06-22T02:48:41;99510.78;;;18.32;100.00
27840;BME280;15207;42.182;24.308;2023-06-22T02:51:07;99514.34;;;18.41;100.00
27840;BME280;15207;42.182;24.308;2023-06-22T02:53:33;99506.94;;;18.43;100.00
27840;BME280;15207;42.182;24.308;2023-06-22T02:56:03;99501.84;;;18.48;100.00
27840;BME280;15207;42.182;24.308;2023-06-22T02:58:31;99501.50;;;18.43;100.00
27840;BME280;15207;42.182;24.308;2023-06-22T03:01:06;99501.50;;;18.43;100.00
27840;BME280;15207;42.182;24.308;2023-06-22T03:03:31;99508.63;;;18.44;100.00
27840;BME280;15207;42.182;24.308;2023-06-22T03:05:57;99500.13;;;18.39;100.00
27840;BME280;15207;42.182;24.308;2023-06-22T03:08:23;99511.13;;;18.29;100.00
27840;BME280;15207;42.182;24.308;2023-06-22T03:10:49;99500.28;;;18.29;99.74
27840;BME280;15207;42.182;24.308;2023-06-22T03:13:14;99502.81;;;18.22;100.00
27840;BME280;15207;42.182;24.308;2023-06-22T03:15:40;99508.22;;;18.22;100.00
27840;BME280;15207;42.182;24.308;2023-06-22T03:18:06;99503.81;;;18.21;100.00
27840;BME280;15207;42.182;24.308;2023-06-22T03:20:32;99504.31;;;18.24;100.00
27840;BME280;15207;42.182;24.308;2023-06-22T03:22:59;99497.06;;;18.25;100.00
27840;BME280;15207;42.182;24.308;2023-06-22T03:25:25;99513.00;;;18.28;100.00
27840;BME280;15207;42.182;24.308;2023-06-22T03:27:51;99503.00;;;18.29;100.00
27840;BME280;15207;42.182;24.308;2023-06-22T03:30:16;99508.28;;;18.39;100.00
27840;BME280;15207;42.182;24.308;2023-06-22T03:32:42;99519.28;;;18.45;100.00
27840;BME280;15207;42.182;24.308;2023-06-22T03:35:08;99516.72;;;18.52;99.67
27840;BME280;15207;42.182;24.308;2023-06-22T03:37:34;99528.09;;;18.64;98.98
27840;BME280;15207;42.182;24.308;2023-06-22T03:40:00;99524.53;;;18.47;100.00
27840;BME280;15207;42.182;24.308;2023-06-22T03:42:27;99525.03;;;18.59;99.73
27840;BME280;15207;42.182;24.308;2023-06-22T03:44:52;99520.50;;;18.68;97.39
27840;BME280;15207;42.182;24.308;2023-06-22T03:47:18;99515.75;;;18.70;97.34
27840;BME280;15207;42.182;24.308;2023-06-22T03:49:44;99521.34;;;18.76;97.86
27840;BME280;15207;42.182;24.308;2023-06-22T03:52:10;99519.63;;;18.84;98.31
27840;BME280;15207;42.182;24.308;2023-06-22T03:54:36;99522.69;;;18.97;97.41
27840;BME280;15207;42.182;24.308;2023-06-22T03:57:02;99517.44;;;19.04;96.08
27840;BME280;15207;42.182;24.308;2023-06-22T03:59:27;99520.28;;;19.02;99.58
27840;BME280;15207;42.182;24.308;2023-06-22T04:01:53;99531.69;;;19.06;99.58
27840;BME280;15207;42.182;24.308;2023-06-22T04:04:20;99535.75;;;19.19;99.14
27840;BME280;15207;42.182;24.308;2023-06-22T04:06:46;99532.69;;;19.22;99.20
27840;BME280;15207;42.182;24.308;2023-06-22T04:09:12;99537.44;;;19.20;99.97
27840;BME280;15207;42.182;24.308;2023-06-22T04:11:38;99540.31;;;19.26;98.98
27840;BME280;15207;42.182;24.308;2023-06-22T04:14:03;99535.81;;;19.50;98.76
27840;BME280;15207;42.182;24.308;2023-06-22T04:16:29;99535.44;;;19.70;97.64
27840;BME280;15207;42.182;24.308;2023-06-22T04:18:54;99526.16;;;19.96;97.00
27840;BME280;15207;42.182;24.308;2023-06-22T04:21:20;99536.22;;;20.27;94.81
27840;BME280;15207;42.182;24.308;2023-06-22T04:23:46;99544.56;;;20.49;93.22
27840;BME280;15207;42.182;24.308;2023-06-22T04:26:13;99547.47;;;20.71;90.66
27840;BME280;15207;42.182;24.308;2023-06-22T04:28:40;99543.72;;;20.95;89.24
27840;BME280;15207;42.182;24.308;2023-06-22T04:31:06;99539.28;;;21.18;87.22
27840;BME280;15207;42.182;24.308;2023-06-22T04:33:32;99546.63;;;21.47;86.08
27840;BME280;15207;42.182;24.308;2023-06-22T04:35:58;99551.31;;;21.69;84.41
27840;BME280;15207;42.182;24.308;2023-06-22T04:38:26;99543.47;;;21.89;83.76
27840;BME280;15207;42.182;24.308;2023-06-22T04:40:52;99543.16;;;21.99;82.60
27840;BME280;15207;42.182;24.308;2023-06-22T04:43:19;99549.41;;;22.14;82.89
27840;BME280;15207;42.182;24.308;2023-06-22T04:45:44;99554.06;;;22.36;82.40
27840;BME280;15207;42.182;24.308;2023-06-22T04:48:10;99551.81;;;22.61;81.04
27840;BME280;15207;42.182;24.308;2023-06-22T04:50:41;99546.50;;;22.75;80.55
27840;BME280;15207;42.182;24.308;2023-06-22T04:53:08;99545.41;;;22.91;80.61
27840;BME280;15207;42.182;24.308;2023-06-22T04:55:38;99549.38;;;23.17;78.95
27840;BME280;15207;42.182;24.308;2023-06-22T04:58:07;99546.84;;;23.37;77.33
27840;BME280;15207;42.182;24.308;2023-06-22T05:00:33;99536.84;;;23.51;75.59
27840;BME280;15207;42.182;24.308;2023-06-22T05:03:01;99540.75;;;23.77;73.51
27840;BME280;15207;42.182;24.308;2023-06-22T05:05:29;99530.09;;;23.89;73.30
27840;BME280;15207;42.182;24.308;2023-06-22T05:07:56;99530.97;;;24.03;71.04
27840;BME280;15207;42.182;24.308;2023-06-22T05:10:25;99531.50;;;24.27;70.51
27840;BME280;15207;42.182;24.308;2023-06-22T05:12:51;99528.19;;;24.52;70.51
27840;BME280;15207;42.182;24.308;2023-06-22T05:15:17;99522.31;;;24.68;68.79
27840;BME280;15207;42.182;24.308;2023-06-22T05:17:45;99509.69;;;24.81;68.65
27840;BME280;15207;42.182;24.308;2023-06-22T05:20:12;99515.84;;;24.96;68.20
27840;BME280;15207;42.182;24.308;2023-06-22T05:22:39;99519.41;;;25.11;67.53
27840;BME280;15207;42.182;24.308;2023-06-22T05:25:08;99516.44;;;25.26;67.23
27840;BME280;15207;42.182;24.308;2023-06-22T05:27:35;99520.84;;;25.33;67.05
27840;BME280;15207;42.182;24.308;2023-06-22T05:30:06;99518.31;;;25.32;65.39
27840;BME280;15207;42.182;24.308;2023-06-22T05:32:32;99518.50;;;25.44;67.77
27840;BME280;15207;42.182;24.308;2023-06-22T05:34:59;99506.25;;;25.60;65.86
27840;BME280;15207;42.182;24.308;2023-06-22T05:37:25;99508.97;;;25.73;66.75
27840;BME280;15207;42.182;24.308;2023-06-22T05:39:51;99502.78;;;25.85;66.00
27840;BME280;15207;42.182;24.308;2023-06-22T05:42:17;99504.00;;;26.02;66.66
27840;BME280;15207;42.182;24.308;2023-06-22T05:44:43;99514.25;;;26.14;65.58
27840;BME280;15207;42.182;24.308;2023-06-22T05:47:09;99510.41;;;26.22;66.32
27840;BME280;15207;42.182;24.308;2023-06-22T05:49:35;99518.63;;;26.35;66.63
27840;BME280;15207;42.182;24.308;2023-06-22T05:52:02;99513.16;;;26.28;66.38
27840;BME280;15207;42.182;24.308;2023-06-22T05:54:28;99508.59;;;26.48;67.12
27840;BME280;15207;42.182;24.308;2023-06-22T05:56:54;99513.38;;;26.59;65.15
27840;BME280;15207;42.182;24.308;2023-06-22T05:59:21;99505.44;;;26.76;64.83
27840;BME280;15207;42.182;24.308;2023-06-22T06:01:47;99506.59;;;26.87;62.72
27840;BME280;15207;42.182;24.308;2023-06-22T06:04:18;99506.16;;;26.90;60.75
27840;BME280;15207;42.182;24.308;2023-06-22T06:06:44;99504.22;;;26.98;60.17
27840;BME280;15207;42.182;24.308;2023-06-22T06:09:10;99503.03;;;27.12;59.03
27840;BME280;15207;42.182;24.308;2023-06-22T06:11:37;99503.28;;;27.29;59.27
27840;BME280;15207;42.182;24.308;2023-06-22T06:14:04;99501.50;;;27.42;57.19
27840;BME280;15207;42.182;24.308;2023-06-22T06:16:30;99512.06;;;27.38;58.36
27840;BME280;15207;42.182;24.308;2023-06-22T06:18:56;99510.56;;;27.42;57.22
27840;BME280;15207;42.182;24.308;2023-06-22T06:21:22;99502.69;;;27.27;56.99
27840;BME280;15207;42.182;24.308;2023-06-22T06:23:48;99504.75;;;27.32;58.12
27840;BME280;15207;42.182;24.308;2023-06-22T06:26:14;99502.00;;;27.32;57.45
27840;BME280;15207;42.182;24.308;2023-06-22T06:28:43;99506.19;;;27.35;58.52
27840;BME280;15207;42.182;24.308;2023-06-22T06:31:09;99502.31;;;27.42;57.64
27840;BME280;15207;42.182;24.308;2023-06-22T06:33:36;99501.44;;;27.67;56.95
27840;BME280;15207;42.182;24.308;2023-06-22T06:36:02;99496.78;;;27.98;58.41
27840;BME280;15207;42.182;24.308;2023-06-22T06:38:32;99495.47;;;28.20;57.71
27840;BME280;15207;42.182;24.308;2023-06-22T06:40:58;99496.78;;;28.48;57.77
27840;BME280;15207;42.182;24.308;2023-06-22T06:43:25;99498.34;;;28.56;57.27
27840;BME280;15207;42.182;24.308;2023-06-22T06:45:51;99500.66;;;28.71;52.65
27840;BME280;15207;42.182;24.308;2023-06-22T06:48:17;99498.06;;;28.88;53.31
27840;BME280;15207;42.182;24.308;2023-06-22T06:50:43;99501.56;;;29.07;52.95
27840;BME280;15207;42.182;24.308;2023-06-22T06:53:09;99499.41;;;29.21;52.27
27840;BME280;15207;42.182;24.308;2023-06-22T06:55:35;99509.56;;;29.21;49.21
27840;BME280;15207;42.182;24.308;2023-06-22T06:58:02;99507.78;;;29.14;49.98
27840;BME280;15207;42.182;24.308;2023-06-22T07:00:29;99514.38;;;29.13;48.88
27840;BME280;15207;42.182;24.308;2023-06-22T07:02:55;99517.72;;;29.15;47.95
27840;BME280;15207;42.182;24.308;2023-06-22T07:05:21;99511.97;;;29.17;47.17
27840;BME280;15207;42.182;24.308;2023-06-22T07:07:46;99511.16;;;29.04;48.63
27840;BME280;15207;42.182;24.308;2023-06-22T07:10:12;99512.94;;;28.99;48.38
27840;BME280;15207;42.182;24.308;2023-06-22T07:12:39;99514.72;;;29.05;48.79
27840;BME280;15207;42.182;24.308;2023-06-22T07:15:08;99513.53;;;29.37;48.69
27840;BME280;15207;42.182;24.308;2023-06-22T07:17:35;99515.56;;;29.53;49.33
27840;BME280;15207;42.182;24.308;2023-06-22T07:20:02;99512.31;;;29.68;48.61
27840;BME280;15207;42.182;24.308;2023-06-22T07:22:36;99507.50;;;29.76;47.98
27840;BME280;15207;42.182;24.308;2023-06-22T07:25:02;99502.06;;;29.81;46.55
27840;BME280;15207;42.182;24.308;2023-06-22T07:27:38;99491.28;;;29.79;46.23
27840;BME280;15207;42.182;24.308;2023-06-22T07:30:06;99500.81;;;30.01;43.99
27840;BME280;15207;42.182;24.308;2023-06-22T07:32:32;99495.03;;;30.14;45.60
27840;BME280;15207;42.182;24.308;2023-06-22T07:34:58;99496.09;;;30.25;44.03
27840;BME280;15207;42.182;24.308;2023-06-22T07:37:24;99499.59;;;30.38;44.49
27840;BME280;15207;42.182;24.308;2023-06-22T07:39:53;99503.72;;;30.52;45.07
27840;BME280;15207;42.182;24.308;2023-06-22T07:42:21;99499.97;;;30.58;42.58
27840;BME280;15207;42.182;24.308;2023-06-22T07:44:46;99496.66;;;30.73;42.54
27840;BME280;15207;42.182;24.308;2023-06-22T07:47:12;99488.63;;;30.89;41.77
27840;BME280;15207;42.182;24.308;2023-06-22T07:49:37;99502.75;;;31.10;41.63
27840;BME280;15207;42.182;24.308;2023-06-22T07:52:04;99484.91;;;31.18;42.59
27840;BME280;15207;42.182;24.308;2023-06-22T07:54:30;99481.28;;;31.17;42.25
27840;BME280;15207;42.182;24.308;2023-06-22T07:56:55;99486.31;;;31.37;42.10
27840;BME280;15207;42.182;24.308;2023-06-22T07:59:22;99475.13;;;31.49;41.50
27840;BME280;15207;42.182;24.308;2023-06-22T08:01:48;99480.06;;;31.47;41.89
27840;BME280;15207;42.182;24.308;2023-06-22T08:04:14;99479.50;;;31.45;41.30
27840;BME280;15207;42.182;24.308;2023-06-22T08:06:41;99469.00;;;31.47;41.11
27840;BME280;15207;42.182;24.308;2023-06-22T08:09:07;99474.28;;;31.49;39.39
27840;BME280;15207;42.182;24.308;2023-06-22T08:11:32;99471.44;;;31.66;40.75
27840;BME280;15207;42.182;24.308;2023-06-22T08:13:59;99468.88;;;31.82;40.14
27840;BME280;15207;42.182;24.308;2023-06-22T08:16:25;99463.88;;;31.78;38.34
27840;BME280;15207;42.182;24.308;2023-06-22T08:18:52;99458.94;;;31.86;39.22
27840;BME280;15207;42.182;24.308;2023-06-22T08:21:19;99460.50;;;31.99;39.56
27840;BME280;15207;42.182;24.308;2023-06-22T08:23:44;99447.25;;;32.01;39.52
27840;BME280;15207;42.182;24.308;2023-06-22T08:26:10;99459.19;;;32.06;37.90
27840;BME280;15207;42.182;24.308;2023-06-22T08:28:36;99461.31;;;32.22;38.38
27840;BME280;15207;42.182;24.308;2023-06-22T08:31:02;99456.63;;;32.27;38.43
27840;BME280;15207;42.182;24.308;2023-06-22T08:33:28;99457.06;;;32.41;37.56
27840;BME280;15207;42.182;24.308;2023-06-22T08:35:56;99455.84;;;32.59;39.68
27840;BME280;15207;42.182;24.308;2023-06-22T08:38:22;99456.53;;;32.77;40.35
27840;BME280;15207;42.182;24.308;2023-06-22T08:40:48;99450.91;;;32.67;38.43
27840;BME280;15207;42.182;24.308;2023-06-22T08:43:14;99445.66;;;32.70;37.68
27840;BME280;15207;42.182;24.308;2023-06-22T08:45:40;99449.94;;;32.83;38.19
27840;BME280;15207;42.182;24.308;2023-06-22T08:48:06;99450.25;;;32.92;35.73
27840;BME280;15207;42.182;24.308;2023-06-22T08:50:31;99456.44;;;33.00;37.47
27840;BME280;15207;42.182;24.308;2023-06-22T08:52:57;99459.00;;;33.11;37.54
27840;BME280;15207;42.182;24.308;2023-06-22T08:55:23;99454.34;;;33.22;35.67
27840;BME280;15207;42.182;24.308;2023-06-22T08:57:49;99448.38;;;32.98;36.51
27840;BME280;15207;42.182;24.308;2023-06-22T09:00:15;99455.84;;;32.97;36.68
27840;BME280;15207;42.182;24.308;2023-06-22T09:02:46;99450.00;;;32.94;35.36
27840;BME280;15207;42.182;24.308;2023-06-22T09:05:13;99447.28;;;32.99;34.17
27840;BME280;15207;42.182;24.308;2023-06-22T09:07:39;99440.94;;;33.04;33.21
27840;BME280;15207;42.182;24.308;2023-06-22T09:10:06;99442.94;;;33.14;32.71
27840;BME280;15207;42.182;24.308;2023-06-22T09:12:32;99441.47;;;33.06;32.97
27840;BME280;15207;42.182;24.308;2023-06-22T09:15:00;99435.13;;;33.05;32.73
27840;BME280;15207;42.182;24.308;2023-06-22T09:17:26;99435.78;;;33.28;32.25
27840;BME280;15207;42.182;24.308;2023-06-22T09:19:51;99439.13;;;33.30;29.67
27840;BME280;15207;42.182;24.308;2023-06-22T09:22:17;99436.56;;;33.18;29.59
27840;BME280;15207;42.182;24.308;2023-06-22T09:24:43;99429.31;;;33.07;30.77
27840;BME280;15207;42.182;24.308;2023-06-22T09:27:09;99428.84;;;33.25;31.52
27840;BME280;15207;42.182;24.308;2023-06-22T09:29:35;99434.84;;;33.02;29.46
27840;BME280;15207;42.182;24.308;2023-06-22T09:32:01;99432.44;;;32.78;30.81
27840;BME280;15207;42.182;24.308;2023-06-22T09:34:27;99422.63;;;32.65;31.89
27840;BME280;15207;42.182;24.308;2023-06-22T09:36:53;99424.59;;;32.69;32.34
27840;BME280;15207;42.182;24.308;2023-06-22T09:39:20;99417.16;;;32.75;32.53
27840;BME280;15207;42.182;24.308;2023-06-22T09:41:46;99416.94;;;32.82;33.72
27840;BME280;15207;42.182;24.308;2023-06-22T09:44:12;99420.28;;;32.89;34.38
27840;BME280;15207;42.182;24.308;2023-06-22T09:46:38;99419.00;;;33.02;33.31
27840;BME280;15207;42.182;24.308;2023-06-22T09:49:03;99400.50;;;33.13;34.10
27840;BME280;15207;42.182;24.308;2023-06-22T09:51:29;99415.25;;;33.19;34.49
27840;BME280;15207;42.182;24.308;2023-06-22T09:53:55;99420.50;;;33.25;34.86
27840;BME280;15207;42.182;24.308;2023-06-22T09:56:21;99414.22;;;33.46;34.51
27840;BME280;15207;42.182;24.308;2023-06-22T09:58:47;99417.94;;;33.62;35.34
27840;BME280;15207;42.182;24.308;2023-06-22T10:01:15;99415.16;;;33.57;33.33
27840;BME280;15207;42.182;24.308;2023-06-22T10:03:41;99418.13;;;33.45;33.57
27840;BME280;15207;42.182;24.308;2023-06-22T10:06:07;99416.38;;;33.28;32.04
27840;BME280;15207;42.182;24.308;2023-06-22T10:08:37;99407.13;;;33.07;32.34
27840;BME280;15207;42.182;24.308;2023-06-22T10:11:04;99403.81;;;33.15;33.64
27840;BME280;15207;42.182;24.308;2023-06-22T10:13:30;99406.66;;;33.31;32.12
27840;BME280;15207;42.182;24.308;2023-06-22T10:15:56;99405.34;;;33.44;33.36
27840;BME280;15207;42.182;24.308;2023-06-22T10:18:22;99403.72;;;33.53;32.46
27840;BME280;15207;42.182;24.308;2023-06-22T10:20:49;99395.16;;;33.55;33.29
27840;BME280;15207;42.182;24.308;2023-06-22T10:23:19;99388.50;;;33.61;34.52
27840;BME280;15207;42.182;24.308;2023-06-22T10:25:46;99390.66;;;33.48;34.32
27840;BME280;15207;42.182;24.308;2023-06-22T10:28:13;99388.09;;;33.26;33.23
27840;BME280;15207;42.182;24.308;2023-06-22T10:30:41;99380.91;;;33.35;32.82
27840;BME280;15207;42.182;24.308;2023-06-22T10:33:08;99382.88;;;33.50;33.09
27840;BME280;15207;42.182;24.308;2023-06-22T10:35:35;99386.56;;;33.61;34.08
27840;BME280;15207;42.182;24.308;2023-06-22T10:38:03;99375.69;;;33.49;32.14
27840;BME280;15207;42.182;24.308;2023-06-22T10:40:29;99372.34;;;33.47;34.19
27840;BME280;15207;42.182;24.308;2023-06-22T10:42:56;99371.84;;;33.66;34.40
27840;BME280;15207;42.182;24.308;2023-06-22T10:45:23;99367.13;;;33.56;33.85
27840;BME280;15207;42.182;24.308;2023-06-22T10:47:51;99367.13;;;33.61;33.00
27840;BME280;15207;42.182;24.308;2023-06-22T10:50:18;99354.41;;;33.86;32.48
27840;BME280;15207;42.182;24.308;2023-06-22T10:52:46;99352.50;;;33.92;31.95
27840;BME280;15207;42.182;24.308;2023-06-22T10:55:13;99350.78;;;33.75;32.55
27840;BME280;15207;42.182;24.308;2023-06-22T10:57:41;99358.28;;;33.64;32.77
27840;BME280;15207;42.182;24.308;2023-06-22T11:00:14;99352.09;;;33.47;33.49
27840;BME280;15207;42.182;24.308;2023-06-22T11:02:41;99350.75;;;33.60;34.48
27840;BME280;15207;42.182;24.308;2023-06-22T11:05:08;99354.38;;;33.60;33.82
27840;BME280;15207;42.182;24.308;2023-06-22T11:07:34;99346.94;;;33.82;33.16
27840;BME280;15207;42.182;24.308;2023-06-22T11:10:00;99349.97;;;33.80;32.96
27840;BME280;15207;42.182;24.308;2023-06-22T11:12:25;99359.44;;;33.84;33.35
27840;BME280;15207;42.182;24.308;2023-06-22T11:14:51;99352.75;;;33.75;33.48
27840;BME280;15207;42.182;24.308;2023-06-22T11:17:18;99354.13;;;33.67;33.02
27840;BME280;15207;42.182;24.308;2023-06-22T11:19:45;99346.94;;;33.82;31.96
27840;BME280;15207;42.182;24.308;2023-06-22T11:22:11;99341.91;;;33.63;33.20
27840;BME280;15207;42.182;24.308;2023-06-22T11:24:37;99346.81;;;33.50;33.61
27840;BME280;15207;42.182;24.308;2023-06-22T11:27:04;99345.22;;;33.60;34.45
27840;BME280;15207;42.182;24.308;2023-06-22T11:29:30;99336.00;;;33.44;35.62
27840;BME280;15207;42.182;24.308;2023-06-22T11:31:56;99340.19;;;33.46;36.06
27840;BME280;15207;42.182;24.308;2023-06-22T11:34:22;99342.66;;;33.48;35.11
27840;BME280;15207;42.182;24.308;2023-06-22T11:36:48;99338.13;;;33.16;33.48
27840;BME280;15207;42.182;24.308;2023-06-22T11:39:14;99345.19;;;32.91;35.33
27840;BME280;15207;42.182;24.308;2023-06-22T11:41:41;99345.19;;;32.91;35.31
27840;BME280;15207;42.182;24.308;2023-06-22T11:44:07;99337.13;;;32.84;36.00
27840;BME280;15207;42.182;24.308;2023-06-22T11:46:34;99342.41;;;32.85;35.12
27840;BME280;15207;42.182;24.308;2023-06-22T11:49:00;99352.88;;;32.78;35.31
27840;BME280;15207;42.182;24.308;2023-06-22T11:51:26;99353.34;;;32.59;36.09
27840;BME280;15207;42.182;24.308;2023-06-22T11:53:53;99353.03;;;32.56;37.55
27840;BME280;15207;42.182;24.308;2023-06-22T11:56:18;99351.06;;;32.51;37.34
27840;BME280;15207;42.182;24.308;2023-06-22T11:58:44;99345.19;;;32.42;37.17
27840;BME280;15207;42.182;24.308;2023-06-22T12:01:11;99343.38;;;32.26;39.40
27840;BME280;15207;42.182;24.308;2023-06-22T12:03:41;99341.03;;;32.12;38.82
27840;BME280;15207;42.182;24.308;2023-06-22T12:06:09;99346.72;;;31.95;39.58
27840;BME280;15207;42.182;24.308;2023-06-22T12:08:36;99342.38;;;31.77;40.46
27840;BME280;15207;42.182;24.308;2023-06-22T12:11:02;99345.78;;;31.62;40.96
27840;BME280;15207;42.182;24.308;2023-06-22T12:13:29;99342.66;;;31.53;41.14
27840;BME280;15207;42.182;24.308;2023-06-22T12:15:55;99348.16;;;31.48;41.07
27840;BME280;15207;42.182;24.308;2023-06-22T12:18:20;99364.81;;;31.31;45.25
27840;BME280;15207;42.182;24.308;2023-06-22T12:20:47;99384.81;;;30.76;59.11
27840;BME280;15207;42.182;24.308;2023-06-22T12:23:14;99400.91;;;29.69;61.93
27840;BME280;15207;42.182;24.308;2023-06-22T12:25:40;99406.28;;;29.23;65.40
27840;BME280;15207;42.182;24.308;2023-06-22T12:28:06;99417.44;;;28.69;74.30
27840;BME280;15207;42.182;24.308;2023-06-22T12:30:33;99420.06;;;27.78;83.12
27840;BME280;15207;42.182;24.308;2023-06-22T12:32:59;99406.44;;;27.34;87.50
27840;BME280;15207;42.182;24.308;2023-06-22T12:35:25;99398.63;;;27.12;84.90
27840;BME280;15207;42.182;24.308;2023-06-22T12:37:51;99389.47;;;26.74;85.88
27840;BME280;15207;42.182;24.308;2023-06-22T12:40:17;99383.22;;;26.41;92.57
27840;BME280;15207;42.182;24.308;2023-06-22T12:42:44;99366.97;;;26.14;100.00
27840;BME280;15207;42.182;24.308;2023-06-22T12:45:10;99363.53;;;25.94;85.71
27840;BME280;15207;42.182;24.308;2023-06-22T12:47:36;99357.16;;;26.00;85.26
27840;BME280;15207;42.182;24.308;2023-06-22T12:50:02;99351.50;;;25.95;81.24
27840;BME280;15207;42.182;24.308;2023-06-22T12:52:30;99337.44;;;26.10;89.97
27840;BME280;15207;42.182;24.308;2023-06-22T12:54:57;99343.56;;;26.12;85.27
27840;BME280;15207;42.182;24.308;2023-06-22T12:57:23;99345.78;;;26.22;82.45